Station Historical Data
Daily Summary for November 9, 2017 Units:  English    Metric   Both
« Previous Day
Next Day »
Daily Weekly Monthly Yearly Custom
  High: Low: Average:
Temperature: 52.1 °F 47.4 °F 50.1 °F
Dew Point: 49.5 °F 44.0 °F 46.8 °F
Humidity: 92 % 87 % 88 %
Wind Speed: 24.0 mph 0.0 mph 3.6 mph
Wind Gust: 32.0 mph - -
Wind:- - SSW
Pressure: 30.11 in 29.93 in -
Precipitation: 0.00 in    
Historical Graphs
 
 
Tabular Data for November 9, 2017
Time Temperature Dew Point Pressure Wind Wind Speed Wind Gust Humidity Rainfall Rate (Hourly) solar
00:00 52.1 °F 48.4 °F 29.94 in Calm   13.0 mph 87 % 0.28 in 0.00 W/m2
00:05 51.9 °F 48.2 °F 29.94 in SSW 2.0 mph 2.0 mph 87 % 0.20 in 0.00 W/m2
00:10 51.6 °F 47.9 °F 29.93 in South 8.0 mph 11.0 mph 87 % 0.15 in 0.00 W/m2
00:15 51.4 °F 47.7 °F 29.93 in South 9.0 mph 11.0 mph 87 % 0.15 in 0.00 W/m2
00:20 51.2 °F 47.5 °F 29.94 in South 5.0 mph 8.0 mph 87 % 0.22 in 0.00 W/m2
00:21 51.2 °F 47.5 °F 29.94 in South 1.0 mph 12.0 mph 87 % 0.22 in 0.00 W/m2
00:26 51.1 °F 47.4 °F 29.94 in SSW 6.0 mph 11.0 mph 87 % 0.14 in 0.00 W/m2
00:31 51.0 °F 47.3 °F 29.94 in SSW 8.0 mph 17.0 mph 87 % 0.12 in 0.00 W/m2
00:36 50.9 °F 47.2 °F 29.94 in SSW 15.0 mph 18.0 mph 87 % 0.40 in 0.00 W/m2
00:41 50.8 °F 47.1 °F 29.94 in South 9.0 mph 10.0 mph 87 % 0.27 in 0.00 W/m2
00:46 50.8 °F 47.1 °F 29.94 in SSW 7.0 mph 10.0 mph 87 % 0.17 in 0.00 W/m2
00:51 50.7 °F 47.0 °F 29.94 in South 7.0 mph 12.0 mph 87 % 0.12 in 0.00 W/m2
00:56 50.7 °F 47.0 °F 29.94 in South 6.0 mph 17.0 mph 87 % 0.06 in 0.00 W/m2
01:01 50.7 °F 47.0 °F 29.95 in SSE 7.0 mph 18.0 mph 87 % 0.04 in 0.00 W/m2
01:06 50.7 °F 47.0 °F 29.95 in WSW 8.0 mph 17.0 mph 87 % 0.04 in 0.00 W/m2
01:11 50.7 °F 47.0 °F 29.95 in SSW 6.0 mph 10.0 mph 87 % 0.20 in 0.00 W/m2
01:16 50.6 °F 46.9 °F 29.95 in South 16.0 mph 24.0 mph 87 % 0.29 in 0.00 W/m2
01:21 50.6 °F 46.9 °F 29.96 in South 10.0 mph 10.0 mph 87 % 0.12 in 0.00 W/m2
01:26 50.5 °F 46.8 °F 29.96 in South 9.0 mph 15.0 mph 87 % 0.07 in 0.00 W/m2
01:31 50.3 °F 46.6 °F 29.96 in SSE 17.0 mph 23.0 mph 87 % 0.09 in 0.00 W/m2
01:36 50.0 °F 46.3 °F 29.96 in SW 14.0 mph 21.0 mph 87 % 0.09 in 0.00 W/m2
01:41 49.7 °F 46.0 °F 29.96 in Calm   32.0 mph 87 % 0.07 in 0.00 W/m2
01:52 49.5 °F 45.8 °F 29.96 in SSW 7.0 mph 21.0 mph 87 % 0.13 in 0.00 W/m2
01:57 49.5 °F 45.8 °F 29.97 in SSW 9.0 mph 23.0 mph 87 % 0.08 in 0.00 W/m2
02:02 49.5 °F 45.8 °F 29.96 in South 12.0 mph 16.0 mph 87 % 0.40 in 0.00 W/m2
02:07 49.5 °F 45.8 °F 29.97 in South 17.0 mph 22.0 mph 87 % 0.12 in 0.00 W/m2
02:12 49.4 °F 45.7 °F 29.97 in South 24.0 mph 30.0 mph 87 % 0.12 in 0.00 W/m2
02:17 49.2 °F 45.5 °F 29.97 in South 11.0 mph 27.0 mph 87 % 0.08 in 0.00 W/m2
02:22 49.1 °F 45.4 °F 29.97 in South 12.0 mph 27.0 mph 87 % 0.08 in 0.00 W/m2
02:27 49.0 °F 45.3 °F 29.97 in South 12.0 mph 24.0 mph 87 % 0.45 in 0.00 W/m2
02:32 49.0 °F 45.3 °F 29.98 in South 19.0 mph 22.0 mph 87 % 0.24 in 0.00 W/m2
02:37 49.0 °F 45.3 °F 29.97 in SSE 7.0 mph 21.0 mph 87 % 0.17 in 0.00 W/m2
02:42 49.0 °F 45.3 °F 29.98 in SSW 17.0 mph 23.0 mph 87 % 0.55 in 0.00 W/m2
02:47 49.1 °F 45.4 °F 29.98 in SE 13.0 mph 23.0 mph 87 % 0.30 in 0.00 W/m2
02:52 49.2 °F 45.5 °F 29.99 in SSE 15.0 mph 22.0 mph 87 % 0.16 in 0.00 W/m2
02:57 49.2 °F 45.5 °F 29.99 in SW 15.0 mph 24.0 mph 87 % 0.20 in 0.00 W/m2
03:02 49.3 °F 45.6 °F 29.99 in South 13.0 mph 21.0 mph 87 % 0.21 in 0.00 W/m2
03:07 49.3 °F 45.6 °F 29.99 in South 13.0 mph 23.0 mph 87 % 0.09 in 0.00 W/m2
03:12 49.3 °F 45.6 °F 29.99 in SSE 2.0 mph 25.0 mph 87 % 0.16 in 0.00 W/m2
03:17 49.2 °F 45.5 °F 29.99 in SSE 15.0 mph 20.0 mph 87 % 0.13 in 0.00 W/m2
03:22 49.0 °F 45.3 °F 29.99 in South 9.0 mph 17.0 mph 87 % 0.28 in 0.00 W/m2
03:27 49.0 °F 45.3 °F 29.98 in SE 12.0 mph 21.0 mph 87 % 0.08 in 0.00 W/m2
03:32 49.0 °F 45.3 °F 29.99 in SSE 13.0 mph 18.0 mph 87 % 0.07 in 0.00 W/m2
03:37 49.0 °F 45.3 °F 29.99 in SSW 5.0 mph 12.0 mph 87 % 0.34 in 0.00 W/m2
03:42 49.1 °F 45.4 °F 29.99 in SSW 13.0 mph 15.0 mph 87 % 0.14 in 0.00 W/m2
03:47 49.1 °F 45.4 °F 29.99 in South 1.0 mph 15.0 mph 87 % 0.06 in 0.00 W/m2
03:52 49.2 °F 45.5 °F 29.99 in SSW 9.0 mph 20.0 mph 87 % 0.18 in 0.00 W/m2
03:57 49.4 °F 45.7 °F 29.99 in Calm   19.0 mph 87 % 0.07 in 0.00 W/m2
04:02 49.6 °F 45.9 °F 29.99 in SW 2.0 mph 13.0 mph 87 % 0.17 in 0.00 W/m2
04:07 49.7 °F 46.0 °F 29.99 in SSW 4.0 mph 20.0 mph 87 % 0.12 in 0.00 W/m2
04:12 49.9 °F 46.2 °F 29.99 in SSW 6.0 mph 20.0 mph 87 % 0.06 in 0.00 W/m2
04:17 49.9 °F 46.5 °F 29.99 in SSE 2.0 mph 15.0 mph 88 % 0.04 in 0.00 W/m2
04:22 50.0 °F 46.6 °F 29.99 in SSW 12.0 mph 19.0 mph 88 % 0.00 in 0.00 W/m2
04:27 50.1 °F 46.7 °F 30.00 in SW 14.0 mph 20.0 mph 88 % 0.14 in 0.00 W/m2
04:32 50.1 °F 46.7 °F 30.00 in SSW 4.0 mph 13.0 mph 88 % 0.14 in 0.00 W/m2
04:37 50.2 °F 46.8 °F 30.01 in SSW 12.0 mph 16.0 mph 88 % 0.17 in 0.00 W/m2
04:42 50.2 °F 46.8 °F 30.00 in South 9.0 mph 14.0 mph 88 % 0.13 in 0.00 W/m2
04:47 50.2 °F 46.8 °F 30.01 in SSW 2.0 mph 14.0 mph 88 % 0.10 in 0.00 W/m2
04:52 50.2 °F 46.8 °F 30.01 in SSW 2.0 mph 14.0 mph 88 % 0.07 in 0.00 W/m2
04:57 50.1 °F 46.7 °F 30.01 in WSW 13.0 mph 15.0 mph 88 % 0.12 in 0.00 W/m2
05:02 50.1 °F 46.7 °F 30.01 in SW 2.0 mph 9.0 mph 88 % 0.10 in 0.00 W/m2
05:07 50.1 °F 46.7 °F 30.01 in SW 9.0 mph 17.0 mph 88 % 0.06 in 0.00 W/m2
05:12 50.1 °F 46.7 °F 30.02 in SSW 9.0 mph 18.0 mph 88 % 0.04 in 0.00 W/m2
05:17 50.1 °F 46.7 °F 30.02 in SSW 5.0 mph 16.0 mph 88 % 0.00 in 0.00 W/m2
05:22 50.0 °F 46.6 °F 30.01 in South 7.0 mph 12.0 mph 88 % 0.00 in 0.00 W/m2
05:27 49.9 °F 46.5 °F 30.01 in WSW 7.0 mph 15.0 mph 88 % 0.00 in 0.00 W/m2
05:32 49.9 °F 46.5 °F 30.01 in SW 4.0 mph 17.0 mph 88 % 0.00 in 0.00 W/m2
05:37 49.9 °F 46.5 °F 30.01 in WSW 14.0 mph 17.0 mph 88 % 0.00 in 0.00 W/m2
05:42 49.8 °F 46.4 °F 30.02 in SSW 10.0 mph 16.0 mph 88 % 0.04 in 0.00 W/m2
05:47 49.8 °F 46.4 °F 30.02 in South 14.0 mph 14.0 mph 88 % 0.13 in 0.00 W/m2
05:52 49.8 °F 46.4 °F 30.02 in SW 3.0 mph 13.0 mph 88 % 0.06 in 0.00 W/m2
05:57 49.8 °F 46.4 °F 30.02 in SSW 1.0 mph 18.0 mph 88 % 0.05 in 0.00 W/m2
06:02 49.7 °F 46.3 °F 30.03 in SW 13.0 mph 13.0 mph 88 % 0.05 in 0.00 W/m2
06:07 49.7 °F 46.3 °F 30.03 in WSW 2.0 mph 17.0 mph 88 % 0.06 in 0.00 W/m2
06:12 49.7 °F 46.3 °F 30.03 in South 10.0 mph 16.0 mph 88 % 0.06 in 0.00 W/m2
06:17 49.7 °F 46.3 °F 30.03 in SSW 7.0 mph 14.0 mph 88 % 0.05 in 0.00 W/m2
06:22 49.6 °F 46.2 °F 30.03 in SSW 9.0 mph 17.0 mph 88 % 0.00 in 0.00 W/m2
06:27 49.6 °F 46.2 °F 30.03 in SSW 6.0 mph 11.0 mph 88 % 0.00 in 0.00 W/m2
06:32 49.6 °F 46.2 °F 30.04 in South 12.0 mph 12.0 mph 88 % 0.00 in 0.00 W/m2
06:37 49.6 °F 46.2 °F 30.04 in Calm   9.0 mph 88 % 0.00 in 0.00 W/m2
06:42 49.6 °F 46.2 °F 30.04 in SSW 7.0 mph 15.0 mph 88 % 0.00 in 0.00 W/m2
06:47 49.6 °F 46.2 °F 30.04 in Calm   12.0 mph 88 % 0.00 in 0.00 W/m2
06:52 49.6 °F 46.2 °F 30.04 in SW 1.0 mph 16.0 mph 88 % 0.00 in 0.00 W/m2
06:58 49.6 °F 46.2 °F 30.04 in SSE 7.0 mph 16.0 mph 88 % 0.00 in 5.00 W/m2
07:03 49.5 °F 46.1 °F 30.05 in Calm   13.0 mph 88 % 0.00 in 11.00 W/m2
07:08 49.5 °F 46.1 °F 30.05 in Calm   6.0 mph 88 % 0.05 in 7.00 W/m2
07:13 49.5 °F 46.1 °F 30.05 in SSW 9.0 mph 12.0 mph 88 % 0.05 in 11.00 W/m2
07:18 49.5 °F 46.1 °F 30.05 in West 2.0 mph 11.0 mph 88 % 0.04 in 11.00 W/m2
07:23 49.5 °F 46.1 °F 30.05 in SSW 3.0 mph 10.0 mph 88 % 0.00 in 16.00 W/m2
07:28 49.5 °F 46.1 °F 30.06 in SW 6.0 mph 15.0 mph 88 % 0.00 in 14.00 W/m2
07:33 49.5 °F 46.1 °F 30.06 in Calm     88 % 0.00 in 28.00 W/m2
07:38 49.6 °F 46.2 °F 30.06 in South 4.0 mph 13.0 mph 88 % 0.00 in 16.00 W/m2
07:43 49.6 °F 46.2 °F 30.07 in South 6.0 mph 12.0 mph 88 % 0.00 in 18.00 W/m2
07:48 49.6 °F 46.2 °F 30.07 in WSW 3.0 mph 8.0 mph 88 % 0.00 in 21.00 W/m2
07:53 49.6 °F 46.2 °F 30.07 in SSW 2.0 mph 13.0 mph 88 % 0.00 in 39.00 W/m2
07:58 49.6 °F 46.2 °F 30.07 in SSW 8.0 mph 10.0 mph 88 % 0.00 in 54.00 W/m2
08:03 49.7 °F 46.3 °F 30.07 in SSW 6.0 mph 10.0 mph 88 % 0.00 in 54.00 W/m2
08:08 49.7 °F 46.3 °F 30.07 in SW 5.0 mph 12.0 mph 88 % 0.00 in 69.00 W/m2
08:13 49.7 °F 46.3 °F 30.07 in South 7.0 mph 11.0 mph 88 % 0.00 in 62.00 W/m2
08:18 49.7 °F 46.3 °F 30.07 in Calm   8.0 mph 88 % 0.00 in 84.00 W/m2
08:23 49.8 °F 46.4 °F 30.08 in SSW 5.0 mph 15.0 mph 88 % 0.00 in 113.00 W/m2
08:28 49.9 °F 46.5 °F 30.08 in South 2.0 mph 13.0 mph 88 % 0.00 in 104.00 W/m2
08:33 49.9 °F 46.5 °F 30.08 in Calm   11.0 mph 88 % 0.00 in 97.00 W/m2
08:38 50.0 °F 46.9 °F 30.07 in Calm     89 % 0.00 in 137.00 W/m2
08:43 50.1 °F 46.7 °F 30.07 in Calm     88 % 0.00 in 104.00 W/m2
08:48 50.2 °F 46.8 °F 30.07 in Calm     88 % 0.00 in 93.00 W/m2
08:53 50.2 °F 46.8 °F 30.07 in Calm     88 % 0.00 in 58.00 W/m2
08:58 50.2 °F 46.8 °F 30.07 in Calm     88 % 0.00 in 44.00 W/m2
09:03 50.2 °F 46.8 °F 30.07 in Calm     88 % 0.46 in 51.00 W/m2
09:08 50.2 °F 46.8 °F 30.08 in Calm     88 % 0.14 in 44.00 W/m2
09:13 50.2 °F 46.8 °F 30.08 in SSW 8.0 mph 13.0 mph 88 % 0.09 in 69.00 W/m2
09:18 50.2 °F 46.8 °F 30.08 in SSW 1.0 mph 9.0 mph 88 % 0.07 in 51.00 W/m2
09:23 50.2 °F 46.8 °F 30.08 in South 7.0 mph 10.0 mph 88 % 0.07 in 49.00 W/m2
09:28 50.2 °F 46.8 °F 30.08 in South 7.0 mph 12.0 mph 88 % 0.05 in 76.00 W/m2
09:33 50.2 °F 46.8 °F 30.08 in SSW 7.0 mph 10.0 mph 88 % 0.00 in 69.00 W/m2
09:38 50.3 °F 46.9 °F 30.08 in South 5.0 mph 11.0 mph 88 % 0.00 in 63.00 W/m2
09:43 50.3 °F 46.9 °F 30.08 in Calm   1.0 mph 88 % 0.00 in 70.00 W/m2
09:48 50.3 °F 46.9 °F 30.08 in Calm   11.0 mph 88 % 0.00 in 91.00 W/m2
09:53 50.4 °F 47.3 °F 30.08 in South 3.0 mph 11.0 mph 89 % 0.00 in 97.00 W/m2
09:58 50.3 °F 48.1 °F 30.08 in Calm   8.0 mph 92 % 0.00 in 120.00 W/m2
10:03 50.4 °F 48.2 °F 30.08 in South 1.0 mph 14.0 mph 92 % 0.00 in 114.00 W/m2
10:08 50.4 °F 47.3 °F 30.08 in South 6.0 mph 9.0 mph 89 % 0.00 in 155.00 W/m2
10:13 50.5 °F 47.4 °F 30.08 in South 4.0 mph 12.0 mph 89 % 0.00 in 125.00 W/m2
10:18 50.5 °F 47.4 °F 30.08 in Calm   9.0 mph 89 % 0.00 in 127.00 W/m2
10:23 50.6 °F 47.5 °F 30.08 in South 5.0 mph 10.0 mph 89 % 0.00 in 102.00 W/m2
10:28 50.6 °F 47.5 °F 30.08 in SSE 4.0 mph 9.0 mph 89 % 0.00 in 77.00 W/m2
10:33 50.6 °F 47.5 °F 30.08 in South 2.0 mph 10.0 mph 89 % 0.00 in 49.00 W/m2
10:38 50.6 °F 47.5 °F 30.08 in Calm     89 % 0.14 in 47.00 W/m2
10:43 50.6 °F 47.5 °F 30.08 in SSW 5.0 mph 11.0 mph 89 % 0.24 in 118.00 W/m2
10:48 50.5 °F 47.4 °F 30.08 in Calm   9.0 mph 89 % 0.10 in 163.00 W/m2
10:53 50.5 °F 47.4 °F 30.08 in SSW 8.0 mph 10.0 mph 89 % 0.05 in 98.00 W/m2
10:58 50.5 °F 47.4 °F 30.08 in Calm     89 % 0.00 in 91.00 W/m2
11:03 50.5 °F 47.4 °F 30.08 in Calm     89 % 0.00 in 142.00 W/m2
11:08 50.5 °F 47.4 °F 30.08 in Calm     89 % 0.00 in 58.00 W/m2
11:13 50.5 °F 47.4 °F 30.08 in Calm     89 % 0.00 in 123.00 W/m2
11:18 50.6 °F 47.5 °F 30.08 in South 5.0 mph 11.0 mph 89 % 0.00 in 239.00 W/m2
11:23 50.6 °F 47.5 °F 30.07 in South 9.0 mph 13.0 mph 89 % 0.00 in 162.00 W/m2
11:24 50.6 °F 47.5 °F 30.07 in South 5.0 mph 13.0 mph 89 % 0.00 in 162.00 W/m2
11:29 50.7 °F 47.6 °F 30.07 in SSW 3.0 mph 13.0 mph 89 % 0.00 in 169.00 W/m2
11:34 50.8 °F 47.7 °F 30.07 in SSW 3.0 mph 9.0 mph 89 % 0.00 in 178.00 W/m2
11:39 50.9 °F 47.8 °F 30.07 in SSW 6.0 mph 6.0 mph 89 % 0.00 in 195.00 W/m2
11:44 51.0 °F 47.9 °F 30.07 in SSW 5.0 mph 14.0 mph 89 % 0.00 in 199.00 W/m2
11:49 51.2 °F 48.1 °F 30.07 in South 6.0 mph 10.0 mph 89 % 0.00 in 162.00 W/m2
11:54 51.3 °F 48.2 °F 30.07 in South 6.0 mph 10.0 mph 89 % 0.00 in 313.00 W/m2
11:59 51.4 °F 48.3 °F 30.06 in Calm   9.0 mph 89 % 0.00 in 67.00 W/m2
12:04 51.5 °F 48.4 °F 30.06 in South 4.0 mph 11.0 mph 89 % 0.00 in 121.00 W/m2
12:09 51.6 °F 48.5 °F 30.06 in SSE 2.0 mph 12.0 mph 89 % 0.00 in 276.00 W/m2
12:14 51.8 °F 48.7 °F 30.05 in SW 16.0 mph 16.0 mph 89 % 0.00 in 271.00 W/m2
12:19 52.0 °F 48.9 °F 30.05 in Calm   11.0 mph 89 % 0.00 in 86.00 W/m2
12:24 51.9 °F 48.8 °F 30.05 in Calm   16.0 mph 89 % 0.00 in 104.00 W/m2
12:29 51.9 °F 48.8 °F 30.05 in South 8.0 mph 11.0 mph 89 % 0.00 in 178.00 W/m2
12:34 51.9 °F 48.8 °F 30.05 in South 5.0 mph 13.0 mph 89 % 0.00 in 93.00 W/m2
12:39 51.9 °F 48.8 °F 30.05 in South 7.0 mph 14.0 mph 89 % 0.00 in 169.00 W/m2
12:42 51.9 °F 48.8 °F 30.05 in South 9.0 mph 12.0 mph 89 % 0.00 in 192.00 W/m2
12:47 51.9 °F 48.8 °F 30.05 in SW 2.0 mph 14.0 mph 89 % 0.00 in 114.00 W/m2
12:52 52.0 °F 48.9 °F 30.05 in South 5.0 mph 11.0 mph 89 % 0.00 in 113.00 W/m2
12:57 52.0 °F 48.9 °F 30.05 in SE 8.0 mph 15.0 mph 89 % 0.00 in 90.00 W/m2
13:02 52.0 °F 48.9 °F 30.05 in SSE 6.0 mph 11.0 mph 89 % 0.00 in 118.00 W/m2
13:07 52.0 °F 48.9 °F 30.05 in SSE 10.0 mph 12.0 mph 89 % 0.00 in 165.00 W/m2
13:12 52.0 °F 48.9 °F 30.05 in SSE 6.0 mph 13.0 mph 89 % 0.00 in 70.00 W/m2
13:17 52.0 °F 48.9 °F 30.05 in Calm   11.0 mph 89 % 0.00 in 141.00 W/m2
13:22 51.9 °F 48.8 °F 30.05 in Calm   5.0 mph 89 % 0.00 in 162.00 W/m2
13:27 51.9 °F 48.8 °F 30.05 in Calm   11.0 mph 89 % 0.00 in 149.00 W/m2
13:33 51.9 °F 48.8 °F 30.05 in SSW 4.0 mph 14.0 mph 89 % 0.00 in 88.00 W/m2
13:38 51.9 °F 48.8 °F 30.05 in SSW 7.0 mph 11.0 mph 89 % 0.00 in 72.00 W/m2
13:43 51.9 °F 48.8 °F 30.05 in Calm   8.0 mph 89 % 0.00 in 62.00 W/m2
13:48 51.8 °F 48.7 °F 30.05 in South 8.0 mph 8.0 mph 89 % 0.00 in 179.00 W/m2
13:53 51.8 °F 49.5 °F 30.05 in South 5.0 mph 16.0 mph 92 % 0.00 in 343.00 W/m2
13:58 51.9 °F 48.8 °F 30.05 in South 8.0 mph 12.0 mph 89 % 0.00 in 155.00 W/m2
14:03 51.9 °F 48.8 °F 30.05 in SSE 7.0 mph 10.0 mph 89 % 0.00 in 98.00 W/m2
14:08 52.0 °F 48.9 °F 30.04 in SSE 9.0 mph 11.0 mph 89 % 0.00 in 83.00 W/m2
14:13 52.0 °F 48.9 °F 30.04 in Calm     89 % 0.00 in 56.00 W/m2
14:18 52.0 °F 48.9 °F 30.04 in Calm     89 % 0.00 in 60.00 W/m2
14:23 52.0 °F 48.9 °F 30.05 in Calm   8.0 mph 89 % 0.00 in 76.00 W/m2
14:28 52.0 °F 48.9 °F 30.05 in South 2.0 mph 8.0 mph 89 % 0.00 in 58.00 W/m2
14:33 52.0 °F 48.9 °F 30.05 in SSW 8.0 mph 9.0 mph 89 % 0.00 in 49.00 W/m2
14:38 51.9 °F 48.8 °F 30.05 in Calm   6.0 mph 89 % 0.00 in 69.00 W/m2
14:43 51.9 °F 48.8 °F 30.05 in Calm   6.0 mph 89 % 0.00 in 58.00 W/m2
14:48 51.9 °F 48.8 °F 30.05 in Calm     89 % 0.00 in 58.00 W/m2
14:53 51.9 °F 48.8 °F 30.05 in Calm     89 % 0.00 in 44.00 W/m2
14:58 51.9 °F 48.8 °F 30.05 in Calm     89 % 0.00 in 37.00 W/m2
15:03 51.8 °F 48.7 °F 30.05 in Calm     89 % 0.00 in 47.00 W/m2
15:08 51.8 °F 48.7 °F 30.05 in Calm     89 % 0.00 in 19.00 W/m2
15:13 51.7 °F 48.6 °F 30.05 in Calm     89 % 0.00 in 14.00 W/m2
15:18 51.6 °F 48.5 °F 30.05 in Calm     89 % 0.00 in 21.00 W/m2
15:23 51.6 °F 48.5 °F 30.05 in Calm     89 % 0.00 in 19.00 W/m2
15:28 51.5 °F 48.4 °F 30.05 in Calm     89 % 0.00 in 21.00 W/m2
15:33 51.5 °F 48.4 °F 30.05 in Calm     89 % 0.07 in 9.00 W/m2
15:38 51.5 °F 48.4 °F 30.05 in Calm     89 % 0.13 in 7.00 W/m2
15:44 51.4 °F 48.3 °F 30.05 in Calm     89 % 0.08 in 11.00 W/m2
15:49 51.4 °F 48.3 °F 30.05 in Calm     89 % 0.14 in 14.00 W/m2
15:54 51.3 °F 48.2 °F 30.05 in Calm     89 % 0.10 in 19.00 W/m2
15:59 51.1 °F 48.0 °F 30.05 in Calm   11.0 mph 89 % 0.16 in 21.00 W/m2
16:04 50.9 °F 47.8 °F 30.05 in Calm   1.0 mph 89 % 0.30 in 7.00 W/m2
16:09 50.8 °F 47.4 °F 30.05 in West 1.0 mph 1.0 mph 88 % 0.18 in 7.00 W/m2
16:14 50.7 °F 47.3 °F 30.05 in Calm     88 % 0.24 in 5.00 W/m2
16:19 50.6 °F 47.2 °F 30.06 in SSW 8.0 mph 15.0 mph 88 % 0.08 in 0.00 W/m2
16:24 50.5 °F 47.1 °F 30.06 in Calm   8.0 mph 88 % 0.08 in 7.00 W/m2
16:29 50.4 °F 47.3 °F 30.06 in Calm     89 % 0.06 in 9.00 W/m2
16:34 50.3 °F 46.9 °F 30.06 in Calm     88 % 0.04 in 11.00 W/m2
16:39 50.3 °F 46.9 °F 30.06 in Calm     88 % 0.00 in 7.00 W/m2
16:44 50.1 °F 46.7 °F 30.06 in Calm     88 % 0.00 in 7.00 W/m2
16:49 50.0 °F 46.6 °F 30.06 in Calm     88 % 0.00 in 5.00 W/m2
16:54 49.8 °F 46.4 °F 30.06 in Calm     88 % 0.00 in 0.00 W/m2
16:59 49.7 °F 46.3 °F 30.06 in Calm     88 % 0.00 in 0.00 W/m2
17:04 49.7 °F 46.3 °F 30.06 in Calm     88 % 0.00 in 0.00 W/m2
17:09 49.7 °F 46.6 °F 30.06 in Calm     89 % 0.00 in 0.00 W/m2
17:14 49.6 °F 47.4 °F 30.06 in Calm     92 % 0.00 in 0.00 W/m2
17:19 49.6 °F 47.4 °F 30.06 in Calm     92 % 0.00 in 0.00 W/m2
17:24 49.6 °F 46.2 °F 30.06 in Calm     88 % 0.00 in 0.00 W/m2
17:29 49.6 °F 46.2 °F 30.06 in Calm     88 % 0.00 in 0.00 W/m2
17:35 49.5 °F 46.1 °F 30.07 in Calm     88 % 0.00 in 0.00 W/m2
17:40 49.5 °F 46.1 °F 30.07 in Calm     88 % 0.00 in 0.00 W/m2
17:45 49.5 °F 46.1 °F 30.07 in Calm     88 % 0.00 in 0.00 W/m2
17:50 49.5 °F 46.1 °F 30.07 in Calm     88 % 0.00 in 0.00 W/m2
17:55 49.5 °F 46.1 °F 30.07 in Calm     88 % 0.00 in 0.00 W/m2
18:00 49.5 °F 46.1 °F 30.07 in Calm     88 % 0.00 in 0.00 W/m2
18:05 49.6 °F 46.2 °F 30.07 in Calm     88 % 0.00 in 0.00 W/m2
18:10 49.5 °F 46.1 °F 30.07 in Calm     88 % 0.00 in 0.00 W/m2
18:15 49.5 °F 46.1 °F 30.07 in Calm     88 % 0.00 in 0.00 W/m2
18:20 49.6 °F 46.2 °F 30.07 in Calm     88 % 0.00 in 0.00 W/m2
18:25 49.6 °F 46.2 °F 30.07 in Calm     88 % 0.00 in 0.00 W/m2
18:30 49.6 °F 46.2 °F 30.07 in Calm     88 % 0.00 in 0.00 W/m2
18:35 49.6 °F 47.4 °F 30.07 in Calm     92 % 0.00 in 0.00 W/m2
18:40 49.6 °F 47.4 °F 30.07 in Calm     92 % 0.00 in 0.00 W/m2
18:45 49.7 °F 46.6 °F 30.07 in Calm     89 % 0.00 in 0.00 W/m2
18:50 49.7 °F 46.6 °F 30.07 in Calm     89 % 0.00 in 0.00 W/m2
18:55 49.7 °F 46.6 °F 30.07 in Calm     89 % 0.00 in 0.00 W/m2
19:00 49.7 °F 46.6 °F 30.07 in Calm     89 % 0.00 in 0.00 W/m2
19:05 49.7 °F 46.6 °F 30.07 in Calm     89 % 0.00 in 0.00 W/m2
19:10 49.8 °F 46.7 °F 30.07 in Calm     89 % 0.00 in 0.00 W/m2
19:15 49.8 °F 46.7 °F 30.08 in Calm     89 % 0.00 in 0.00 W/m2
19:20 49.8 °F 46.7 °F 30.08 in Calm     89 % 0.00 in 0.00 W/m2
19:25 49.9 °F 46.8 °F 30.08 in Calm     89 % 0.00 in 0.00 W/m2
19:30 49.9 °F 46.8 °F 30.08 in Calm     89 % 0.00 in 0.00 W/m2
19:35 49.9 °F 46.8 °F 30.08 in Calm     89 % 0.00 in 0.00 W/m2
19:38 49.9 °F 46.8 °F 30.08 in Calm     89 % 0.00 in 0.00 W/m2
19:43 49.9 °F 46.8 °F 30.08 in Calm     89 % 0.00 in 0.00 W/m2
19:48 49.9 °F 46.8 °F 30.08 in Calm     89 % 0.00 in 0.00 W/m2
19:53 49.9 °F 46.8 °F 30.08 in Calm     89 % 0.00 in 0.00 W/m2
19:54 50.0 °F 46.9 °F 30.08 in Calm     89 % 0.00 in 0.00 W/m2
19:59 50.0 °F 46.9 °F 30.08 in Calm     89 % 0.00 in 0.00 W/m2
20:04 50.0 °F 46.9 °F 30.08 in Calm     89 % 0.00 in 0.00 W/m2
20:09 50.0 °F 46.9 °F 30.08 in Calm     89 % 0.00 in 0.00 W/m2
20:14 50.0 °F 46.9 °F 30.08 in Calm     89 % 0.00 in 0.00 W/m2
20:19 50.0 °F 46.9 °F 30.08 in Calm     89 % 0.00 in 0.00 W/m2
20:24 50.0 °F 46.9 °F 30.08 in Calm     89 % 0.00 in 0.00 W/m2
20:29 50.0 °F 46.9 °F 30.08 in Calm     89 % 0.00 in 0.00 W/m2
20:34 50.0 °F 46.9 °F 30.09 in Calm     89 % 0.00 in 0.00 W/m2
20:39 49.9 °F 46.8 °F 30.09 in Calm     89 % 0.00 in 0.00 W/m2
20:44 49.9 °F 46.8 °F 30.09 in Calm     89 % 0.00 in 0.00 W/m2
20:49 49.9 °F 46.8 °F 30.09 in Calm     89 % 0.00 in 0.00 W/m2
20:54 49.9 °F 46.8 °F 30.09 in Calm     89 % 0.00 in 0.00 W/m2
20:59 49.8 °F 46.7 °F 30.09 in Calm     89 % 0.00 in 0.00 W/m2
21:04 49.8 °F 46.7 °F 30.09 in Calm     89 % 0.00 in 0.00 W/m2
21:09 49.7 °F 46.6 °F 30.09 in Calm     89 % 0.00 in 0.00 W/m2
21:14 49.7 °F 46.6 °F 30.09 in Calm     89 % 0.00 in 0.00 W/m2
21:19 49.6 °F 46.5 °F 30.09 in Calm     89 % 0.00 in 0.00 W/m2
21:24 49.5 °F 46.4 °F 30.09 in Calm     89 % 0.00 in 0.00 W/m2
21:29 49.5 °F 46.4 °F 30.09 in Calm     89 % 0.00 in 0.00 W/m2
21:34 49.4 °F 46.3 °F 30.09 in Calm     89 % 0.00 in 0.00 W/m2
21:39 49.4 °F 46.3 °F 30.09 in Calm     89 % 0.00 in 0.00 W/m2
21:44 49.3 °F 46.2 °F 30.09 in Calm     89 % 0.00 in 0.00 W/m2
21:49 49.3 °F 46.2 °F 30.09 in Calm     89 % 0.00 in 0.00 W/m2
21:54 49.2 °F 46.1 °F 30.09 in Calm     89 % 0.00 in 0.00 W/m2
21:59 49.2 °F 46.1 °F 30.10 in Calm     89 % 0.00 in 0.00 W/m2
22:04 49.2 °F 46.1 °F 30.10 in Calm     89 % 0.00 in 0.00 W/m2
22:09 49.1 °F 46.0 °F 30.10 in Calm     89 % 0.00 in 0.00 W/m2
22:14 49.1 °F 46.0 °F 30.10 in Calm     89 % 0.00 in 0.00 W/m2
22:19 49.0 °F 45.9 °F 30.10 in Calm     89 % 0.00 in 0.00 W/m2
22:24 48.9 °F 45.8 °F 30.10 in Calm     89 % 0.00 in 0.00 W/m2
22:30 48.8 °F 45.7 °F 30.10 in Calm     89 % 0.00 in 0.00 W/m2
22:34 48.5 °F 45.4 °F 30.10 in Calm     89 % 0.00 in 0.00 W/m2
22:39 48.4 °F 45.3 °F 30.10 in Calm     89 % 0.00 in 0.00 W/m2
22:45 48.3 °F 44.9 °F 30.10 in Calm     88 % 0.00 in 0.00 W/m2
22:50 48.2 °F 44.8 °F 30.10 in Calm     88 % 0.00 in 0.00 W/m2
22:55 48.2 °F 44.8 °F 30.10 in Calm     88 % 0.00 in 0.00 W/m2
23:00 48.2 °F 45.1 °F 30.11 in Calm     89 % 0.00 in 0.00 W/m2
23:05 48.1 °F 45.0 °F 30.11 in Calm     89 % 0.00 in 0.00 W/m2
23:10 48.1 °F 45.0 °F 30.10 in Calm     89 % 0.00 in 0.00 W/m2
23:15 48.1 °F 45.0 °F 30.10 in Calm     89 % 0.00 in 0.00 W/m2
23:20 48.0 °F 44.9 °F 30.10 in Calm     89 % 0.00 in 0.00 W/m2
23:23 48.0 °F 44.9 °F 30.10 in Calm     89 % 0.00 in 0.00 W/m2
23:28 47.9 °F 44.8 °F 30.11 in Calm     89 % 0.00 in 0.00 W/m2
23:33 47.9 °F 44.8 °F 30.11 in Calm     89 % 0.00 in 0.00 W/m2
23:38 47.9 °F 44.8 °F 30.11 in Calm     89 % 0.00 in 0.00 W/m2
23:43 47.8 °F 44.7 °F 30.11 in Calm     89 % 0.00 in 0.00 W/m2
23:48 47.6 °F 44.2 °F 30.11 in Calm     88 % 0.00 in 0.00 W/m2
23:53 47.5 °F 44.4 °F 30.11 in Calm     89 % 0.00 in 0.00 W/m2
23:58 47.4 °F 44.0 °F 30.10 in Calm     88 % 0.00 in 0.00 W/m2
Juneau County Weather
Compliments of Weather Underground - 4.5 mb
 WU-history PHP script courtesy of   Juneau County Weather.
powered by Cumulus v1.9.3 (1059)
Ambient Weather VWS v14.00
Top Contact Website Map Copyright © 2007 - 2018 Foresthillweather.com Never base important decisions on this or any weather information obtained from the Internet